Time;durP1;ratioP1;P1;durP2;ratioP2;P2;SDS_P1;SDS_P2;PMS_P1;PMS_P2;Temp;Humidity;BMP_temperature;BMP_pressure;BME280_temperature;BME280_humidity;BME280_pressure;Samples;Min_cycle;Max_cycle;Signal;HPM_P1;HPM_P2
2022/03/07 00:00:40;;;;;;;;;;;;;;;-1.95;65.13;99511.89;1758824;81;21198;-68
2022/03/07 00:03:10;;;;;;;;;;;;;;;-1.96;65.31;99504.87;1758924;81;20440;-68
2022/03/07 00:05:37;;;;;;;;;;;;;;;-1.96;65.43;99500.83;1758769;81;20115;-68
2022/03/07 00:08:05;;;;;;;;;;;;;;;-1.96;64.99;99499.48;1758711;81;20079;-68
2022/03/07 00:10:33;;;;;;;;;;;;;;;-1.97;64.57;99493.81;1758803;81;20094;-68
2022/03/07 00:13:02;;;;;;;;;;;;;;;-1.99;64.94;99492.70;1758784;80;20103;-67
2022/03/07 00:15:29;;;;;;;;;;;;;;;-2.01;64.31;99488.08;1758682;81;20128;-68
2022/03/07 00:17:56;;;;;;;;;;;;;;;-2.01;64.71;99481.36;1759130;81;20083;-68
2022/03/07 00:20:25;;;;;;;;;;;;;;;-2.02;64.34;99471.12;1758699;81;20110;-68
2022/03/07 00:22:53;;;;;;;;;;;;;;;-2.04;64.57;99474.58;1758749;81;20450;-68
2022/03/07 00:25:21;;;;;;;;;;;;;;;-2.05;64.93;99471.59;1759106;81;21791;-68
2022/03/07 00:27:48;;;;;;;;;;;;;;;-2.05;64.94;99468.09;1758748;81;20132;-68
2022/03/07 00:30:18;;;;;;;;;;;;;;;-2.06;64.77;99465.92;1758784;81;20415;-68
2022/03/07 00:32:45;;;;;;;;;;;;;;;-2.07;64.96;99468.32;1735822;81;20135;-68
2022/03/07 00:35:12;;;;;;;;;;;;;;;-2.06;65.58;99467.27;1758850;81;20111;-68
2022/03/07 00:37:40;;;;;;;;;;;;;;;-2.06;65.51;99465.11;1758665;81;20091;-68
2022/03/07 00:40:10;;;;;;;;;;;;;;;-2.07;65.60;99466.98;1758751;81;20083;-68
2022/03/07 00:42:39;;;;;;;;;;;;;;;-2.08;65.72;99455.92;1758960;81;20418;-68
2022/03/07 00:45:07;;;;;;;;;;;;;;;-2.11;66.08;99454.23;1758728;81;20461;-68
2022/03/07 00:47:34;;;;;;;;;;;;;;;-2.11;66.28;99457.74;1758904;81;20075;-68
2022/03/07 00:50:02;;;;;;;;;;;;;;;-2.12;66.09;99450.73;1758704;81;21217;-68
2022/03/07 00:52:31;;;;;;;;;;;;;;;-2.13;66.27;99450.96;1758750;81;20131;-68
2022/03/07 00:54:58;;;;;;;;;;;;;;;-2.15;66.38;99447.16;1758724;81;20091;-68
2022/03/07 00:57:26;;;;;;;;;;;;;;;-2.15;66.26;99445.81;1761553;81;20119;-68
2022/03/07 00:59:55;;;;;;;;;;;;;;;-2.16;66.15;99442.84;1766287;81;20074;-68
2022/03/07 01:02:21;;;;;;;;;;;;;;;-2.17;66.31;99435.82;1766365;81;21114;-68
2022/03/07 01:04:48;;;;;;;;;;;;;;;-2.17;66.57;99430.97;1766153;81;20090;-68
2022/03/07 01:07:15;;;;;;;;;;;;;;;-2.16;66.72;99423.19;1754200;80;20117;-69
2022/03/07 01:09:44;;;;;;;;;;;;;;;-2.15;66.51;99421.61;1735975;82;20149;-68
2022/03/07 01:12:14;;;;;;;;;;;;;;;-2.15;66.59;99420.80;1735959;82;20464;-69
2022/03/07 01:14:43;;;;;;;;;;;;;;;-2.16;66.55;99421.32;1735960;81;20118;-69
2022/03/07 01:17:11;;;;;;;;;;;;;;;-2.16;66.68;99417.81;1735943;82;20416;-68
2022/03/07 01:19:40;;;;;;;;;;;;;;;-2.16;66.20;99418.63;1735898;82;20113;-68
2022/03/07 01:22:08;;;;;;;;;;;;;;;-2.17;66.09;99415.65;1750370;81;20713;-68
2022/03/07 01:24:36;;;;;;;;;;;;;;;-2.17;66.12;99414.30;1766341;81;20416;-69
2022/03/07 01:27:04;;;;;;;;;;;;;;;-2.18;66.44;99412.67;1766239;81;21149;-68
2022/03/07 01:29:32;;;;;;;;;;;;;;;-2.18;66.39;99409.98;1766165;81;20118;-68
2022/03/07 01:32:00;;;;;;;;;;;;;;;-2.19;66.53;99407.00;1766182;81;20150;-68
2022/03/07 01:34:29;;;;;;;;;;;;;;;-2.19;66.78;99405.66;1766227;81;20150;-68
2022/03/07 01:36:56;;;;;;;;;;;;;;;-2.18;66.72;99407.29;1766249;81;20111;-68
2022/03/07 01:39:24;;;;;;;;;;;;;;;-2.18;66.75;99407.29;1766294;81;20466;-68
2022/03/07 01:41:52;;;;;;;;;;;;;;;-2.19;66.84;99408.34;1766165;81;20127;-68
2022/03/07 01:44:20;;;;;;;;;;;;;;;-2.21;66.97;99405.08;1766274;81;20107;-68
2022/03/07 01:46:47;;;;;;;;;;;;;;;-2.21;67.20;99399.70;1766277;81;20115;-69
2022/03/07 01:49:14;;;;;;;;;;;;;;;-2.22;67.39;99398.06;1766314;81;20151;-69
2022/03/07 01:51:41;;;;;;;;;;;;;;;-2.23;67.50;99398.30;1747629;81;21119;-69
2022/03/07 01:54:10;;;;;;;;;;;;;;;-2.23;67.69;99391.05;1738752;81;20116;-69
2022/03/07 01:56:37;;;;;;;;;;;;;;;-2.22;68.83;99391.86;1766613;81;20429;-69
2022/03/07 01:59:04;;;;;;;;;;;;;;;-2.23;68.52;99389.70;1766156;80;20421;-69
2022/03/07 02:01:32;;;;;;;;;;;;;;;-2.22;68.46;99391.86;1766317;81;20090;-69
2022/03/07 02:03:58;;;;;;;;;;;;;;;-2.23;68.51;99382.98;1766219;81;21168;-69
2022/03/07 02:06:25;;;;;;;;;;;;;;;-2.23;68.70;99390.23;1766086;81;20079;-69
2022/03/07 02:08:53;;;;;;;;;;;;;;;-2.23;68.95;99384.33;1766162;81;20078;-68
2022/03/07 02:11:21;;;;;;;;;;;;;;;-2.25;68.89;99382.39;1765554;81;20078;-68
2022/03/07 02:13:48;;;;;;;;;;;;;;;-2.26;69.08;99382.63;1756540;80;20412;-68
2022/03/07 02:16:17;;;;;;;;;;;;;;;-2.27;69.34;99375.09;1765747;81;21125;-68
2022/03/07 02:18:44;;;;;;;;;;;;;;;-2.26;69.34;99379.42;1766451;80;20406;-67
2022/03/07 02:21:17;;;;;;;;;;;;;;;-2.28;69.41;99370.77;1735564;82;20159;-68
2022/03/07 02:23:50;;;;;;;;;;;;;;;-2.27;69.35;99371.58;1721344;82;20124;-68
2022/03/07 02:26:18;;;;;;;;;;;;;;;-2.28;69.35;99369.95;1774668;80;20191;-67
2022/03/07 02:28:46;;;;;;;;;;;;;;;-2.31;69.57;99367.77;1767733;80;21765;-67
2022/03/07 02:31:19;;;;;;;;;;;;;;;-2.29;69.63;99369.66;1753756;82;20121;-67
2022/03/07 02:33:47;;;;;;;;;;;;;;;-2.31;69.48;99367.20;1779898;80;20336;-67
2022/03/07 02:36:15;;;;;;;;;;;;;;;-2.29;69.31;99358.38;1784428;80;20096;-67
2022/03/07 02:38:44;;;;;;;;;;;;;;;-2.29;69.15;99365.09;1784773;80;20108;-68
2022/03/07 02:41:11;;;;;;;;;;;;;;;-2.29;69.16;99358.38;1784809;80;21243;-68
2022/03/07 02:43:38;;;;;;;;;;;;;;;-2.30;69.11;99354.05;1784631;80;20092;-68
2022/03/07 02:46:05;;;;;;;;;;;;;;;-2.29;69.23;99351.66;1775943;79;20080;-68
2022/03/07 02:48:32;;;;;;;;;;;;;;;-2.29;69.29;99351.66;1770034;80;20902;-68
2022/03/07 02:50:58;;;;;;;;;;;;;;;-2.30;69.27;99354.05;1760511;80;20083;-68
2022/03/07 02:53:26;;;;;;;;;;;;;;;-2.30;69.23;99351.36;1753745;80;21074;-68
2022/03/07 02:55:54;;;;;;;;;;;;;;;-2.32;69.32;99338.72;1753513;82;20163;-68
2022/03/07 02:58:21;;;;;;;;;;;;;;;-2.34;69.36;99340.30;1753804;81;20163;-68
2022/03/07 03:00:48;;;;;;;;;;;;;;;-2.34;69.50;99338.13;1753563;82;20095;-68
2022/03/07 03:03:15;;;;;;;;;;;;;;;-2.33;69.58;99334.39;1753519;82;20071;-68
2022/03/07 03:05:43;;;;;;;;;;;;;;;-2.33;69.67;99338.42;1753626;82;20088;-68
2022/03/07 03:08:11;;;;;;;;;;;;;;;-2.33;69.87;99334.39;1753350;82;20402;-68
2022/03/07 03:10:37;;;;;;;;;;;;;;;-2.34;70.02;99334.10;1753614;82;20163;-68
2022/03/07 03:13:04;;;;;;;;;;;;;;;-2.35;69.82;99333.81;1753979;80;20078;-68
2022/03/07 03:15:32;;;;;;;;;;;;;;;-2.36;69.90;99328.96;1753935;82;20067;-68
2022/03/07 03:17:59;;;;;;;;;;;;;;;-2.35;70.20;99332.47;1754145;82;20780;-68
2022/03/07 03:20:26;;;;;;;;;;;;;;;-2.36;70.37;99322.23;1753839;82;20079;-68
2022/03/07 03:22:53;;;;;;;;;;;;;;;-2.35;70.22;99327.91;1753784;82;20083;-68
2022/03/07 03:25:21;;;;;;;;;;;;;;;-2.36;70.16;99326.27;1753771;82;20151;-68
2022/03/07 03:27:48;;;;;;;;;;;;;;;-2.37;70.05;99323.82;1753914;82;20115;-68
2022/03/07 03:30:15;;;;;;;;;;;;;;;-2.38;70.04;99324.88;1753753;82;21889;-71
2022/03/07 03:32:42;;;;;;;;;;;;;;;-2.39;69.89;99320.55;1753704;82;20111;-69
2022/03/07 03:35:09;;;;;;;;;;;;;;;-2.40;69.80;99317.57;1753861;82;20084;-70
2022/03/07 03:37:36;;;;;;;;;;;;;;;-2.41;69.92;99315.94;1753793;82;20096;-70
2022/03/07 03:40:05;;;;;;;;;;;;;;;-2.40;70.13;99314.36;1753920;82;20087;-69
2022/03/07 03:42:32;;;;;;;;;;;;;;;-2.40;70.17;99308.16;1753268;82;21171;-70
2022/03/07 03:45:00;;;;;;;;;;;;;;;-2.38;70.03;99304.19;1753912;82;20127;-70
2022/03/07 03:47:27;;;;;;;;;;;;;;;-2.37;69.81;99303.12;1753771;82;20480;-70
2022/03/07 03:49:55;;;;;;;;;;;;;;;-2.37;69.72;99300.97;1753743;82;20071;-70
2022/03/07 03:52:22;;;;;;;;;;;;;;;-2.37;69.74;99295.59;1758435;80;20095;-69
2022/03/07 03:54:49;;;;;;;;;;;;;;;-2.37;69.73;99302.31;1767697;80;21089;-69
2022/03/07 03:57:15;;;;;;;;;;;;;;;-2.36;69.55;99293.19;1753819;82;20079;-73
2022/03/07 03:59:43;;;;;;;;;;;;;;;-2.37;69.64;99288.88;1751746;81;20079;-72
2022/03/07 04:02:10;;;;;;;;;;;;;;;-2.37;69.56;99284.84;1701245;84;20581;-72
2022/03/07 04:04:37;;;;;;;;;;;;;;;-2.36;69.59;99282.44;1700943;84;20087;-71
2022/03/07 04:07:04;;;;;;;;;;;;;;;-2.36;69.80;99281.91;1701036;84;21122;-69
2022/03/07 04:09:30;;;;;;;;;;;;;;;-2.35;69.84;99272.79;1701329;84;20099;-69
2022/03/07 04:12:01;;;;;;;;;;;;;;;-2.35;69.49;99276.83;1701205;84;20430;-68
2022/03/07 04:14:28;;;;;;;;;;;;;;;-2.36;69.65;99274.38;1701012;83;20584;-72
2022/03/07 04:16:57;;;;;;;;;;;;;;;-2.37;69.69;99270.87;1701095;84;20103;-71
2022/03/07 04:19:25;;;;;;;;;;;;;;;-2.38;69.86;99269.23;1701147;84;21741;-71
2022/03/07 04:21:52;;;;;;;;;;;;;;;-2.38;70.08;99260.35;1701083;84;20075;-71
2022/03/07 04:24:19;;;;;;;;;;;;;;;-2.39;70.08;99264.09;1701322;84;20111;-69
2022/03/07 04:26:46;;;;;;;;;;;;;;;-2.39;70.24;99261.41;1701088;84;20172;-69
2022/03/07 04:29:14;;;;;;;;;;;;;;;-2.38;70.84;99249.60;1701143;84;20075;-72
2022/03/07 04:31:42;;;;;;;;;;;;;;;-2.37;70.73;99259.30;1701086;84;21171;-68
2022/03/07 04:34:09;;;;;;;;;;;;;;;-2.38;70.71;99250.94;1753844;82;20091;-68
2022/03/07 04:36:38;;;;;;;;;;;;;;;-2.38;70.67;99254.97;1754014;82;20119;-68
2022/03/07 04:39:06;;;;;;;;;;;;;;;-2.39;70.78;99252.00;1753909;82;20144;-69
2022/03/07 04:41:34;;;;;;;;;;;;;;;-2.39;70.81;99246.63;1753916;82;20445;-70
2022/03/07 04:44:01;;;;;;;;;;;;;;;-2.39;70.97;99246.63;1753985;82;21137;-68
2022/03/07 04:46:28;;;;;;;;;;;;;;;-2.40;71.16;99240.43;1753927;82;20091;-68
2022/03/07 04:48:55;;;;;;;;;;;;;;;-2.38;72.05;99237.50;1753949;82;20095;-70
2022/03/07 04:51:23;;;;;;;;;;;;;;;-2.37;71.20;99243.16;1754161;82;20791;-69
2022/03/07 04:53:50;;;;;;;;;;;;;;;-2.38;71.10;99241.53;1753991;82;20142;-69
2022/03/07 04:56:17;;;;;;;;;;;;;;;-2.38;71.14;99237.50;1754187;82;20609;-69
2022/03/07 04:58:44;;;;;;;;;;;;;;;-2.37;71.52;99234.58;1756340;81;20095;-69
2022/03/07 05:01:14;;;;;;;;;;;;;;;-2.36;71.23;99233.52;1760053;81;20118;-69
2022/03/07 05:03:41;;;;;;;;;;;;;;;-2.35;71.22;99235.68;1760222;81;20627;-69
2022/03/07 05:06:11;;;;;;;;;;;;;;;-2.34;71.31;99235.44;1760177;80;20103;-69
2022/03/07 05:08:40;;;;;;;;;;;;;;;;;;1760092;80;20154;-69
2022/03/07 05:11:08;;;;;;;;;;;;;;;-2.29;71.37;99230.66;1760063;81;20126;-69
2022/03/07 05:13:36;;;;;;;;;;;;;;;-2.27;71.25;99227.73;1760015;80;20082;-69
2022/03/07 05:16:05;;;;;;;;;;;;;;;-2.24;71.30;99224.56;1760035;81;20111;-69
2022/03/07 05:18:32;;;;;;;;;;;;;;;-2.23;71.32;99221.63;1760049;81;20142;-69
2022/03/07 05:20:59;;;;;;;;;;;;;;;-2.21;71.14;99220.86;1760238;81;21199;-69
2022/03/07 05:23:28;;;;;;;;;;;;;;;-2.20;71.22;99214.43;1759984;81;20464;-68
2022/03/07 05:25:54;;;;;;;;;;;;;;;-2.18;71.17;99212.31;1760039;81;20114;-68
2022/03/07 05:28:24;;;;;;;;;;;;;;;-2.16;71.35;99209.39;1760105;81;20142;-68
2022/03/07 05:30:51;;;;;;;;;;;;;;;-2.14;71.34;99208.62;1760171;81;20112;-69
2022/03/07 05:33:18;;;;;;;;;;;;;;;-2.14;71.26;99212.12;1760132;81;21214;-68
2022/03/07 05:35:46;;;;;;;;;;;;;;;-2.13;71.29;99199.49;1760235;81;20130;-68
2022/03/07 05:38:13;;;;;;;;;;;;;;;-2.11;71.54;99204.10;1760044;81;20430;-70
2022/03/07 05:40:40;;;;;;;;;;;;;;;-2.07;71.86;99206.06;1760112;81;20125;-68
2022/03/07 05:43:07;;;;;;;;;;;;;;;-2.05;71.84;99199.92;1760329;81;20090;-68
2022/03/07 05:45:34;;;;;;;;;;;;;;;-2.04;71.70;99196.17;1760026;81;21134;-68
2022/03/07 05:48:01;;;;;;;;;;;;;;;-2.00;71.85;99200.01;1759921;81;20094;-66
2022/03/07 05:50:28;;;;;;;;;;;;;;;-1.94;71.93;99204.95;1761922;80;20098;-66
2022/03/07 05:52:54;;;;;;;;;;;;;;;-1.91;71.41;99203.13;1767123;80;20079;-66
2022/03/07 05:55:21;;;;;;;;;;;;;;;-1.90;71.37;99199.38;1747196;82;20067;-67
2022/03/07 05:57:49;;;;;;;;;;;;;;;-1.88;71.49;99191.88;1747216;81;21137;-69
2022/03/07 06:00:18;;;;;;;;;;;;;;;-1.84;71.90;99196.23;1753195;81;20430;-68
2022/03/07 06:02:45;;;;;;;;;;;;;;;-1.80;71.46;99192.81;1698036;84;20083;-68
2022/03/07 06:05:14;;;;;;;;;;;;;;;-1.78;71.17;99188.01;1698254;84;21371;-68
2022/03/07 06:07:41;;;;;;;;;;;;;;;-1.74;71.35;99188.34;1698078;84;20087;-68
2022/03/07 06:10:09;;;;;;;;;;;;;;;-1.71;72.25;99179.74;1698035;84;21136;-68
2022/03/07 06:12:38;;;;;;;;;;;;;;;-1.66;71.55;99181.98;1698271;84;20446;-68
2022/03/07 06:15:08;;;;;;;;;;;;;;;-1.60;71.29;99173.99;1697916;83;20429;-68
2022/03/07 06:17:34;;;;;;;;;;;;;;;-1.58;70.77;99180.77;1697946;84;20674;-67
2022/03/07 06:20:05;;;;;;;;;;;;;;;-1.56;70.53;99179.98;1698093;84;20441;-66
2022/03/07 06:22:33;;;;;;;;;;;;;;;-1.55;70.22;99182.96;1698017;84;21222;-66
2022/03/07 06:25:01;;;;;;;;;;;;;;;-1.53;70.07;99175.45;1698002;84;20091;-66
2022/03/07 06:27:28;;;;;;;;;;;;;;;-1.49;70.38;99175.78;1698036;84;20095;-67
2022/03/07 06:29:55;;;;;;;;;;;;;;;-1.43;70.55;99177.49;1718742;82;20190;-66
2022/03/07 06:32:23;;;;;;;;;;;;;;;-1.38;70.46;99168.95;1729175;82;20088;-66
2022/03/07 06:34:50;;;;;;;;;;;;;;;-1.31;70.22;99173.36;1725025;82;21088;-66
2022/03/07 06:37:17;;;;;;;;;;;;;;;-1.26;69.11;99172.90;1725334;83;20159;-68
2022/03/07 06:39:44;;;;;;;;;;;;;;;-1.28;68.57;99170.98;1739899;81;20118;-68
2022/03/07 06:42:10;;;;;;;;;;;;;;;-1.27;68.88;99175.84;1725554;83;20683;-67
2022/03/07 06:44:40;;;;;;;;;;;;;;;-1.27;68.03;99179.34;1725280;83;20499;-67
2022/03/07 06:47:08;;;;;;;;;;;;;;;-1.25;67.97;99177.75;1722370;83;21256;-67
2022/03/07 06:49:36;;;;;;;;;;;;;;;-1.26;68.61;99171.55;1725429;83;20100;-67
2022/03/07 06:52:03;;;;;;;;;;;;;;;-1.22;67.85;99174.03;1725488;83;20085;-68
2022/03/07 06:54:31;;;;;;;;;;;;;;;-1.23;67.76;99172.94;1725283;83;20144;-68
2022/03/07 06:56:58;;;;;;;;;;;;;;;-1.24;67.62;99169.42;1725254;83;20101;-68
2022/03/07 06:59:24;;;;;;;;;;;;;;;-1.19;68.25;99168.69;1721770;82;21698;-68
2022/03/07 07:01:52;;;;;;;;;;;;;;;-1.09;68.48;99171.48;1716526;83;20121;-68
2022/03/07 07:04:21;;;;;;;;;;;;;;;-0.99;67.65;99167.58;1716668;83;20416;-68
2022/03/07 07:06:48;;;;;;;;;;;;;;;-0.92;66.83;99167.40;1749508;81;20169;-67
2022/03/07 07:09:17;;;;;;;;;;;;;;;-0.90;66.85;99166.62;1804029;78;20092;-67
2022/03/07 07:11:45;;;;;;;;;;;;;;;-0.87;67.39;99162.89;1805802;78;21124;-67
2022/03/07 07:14:12;;;;;;;;;;;;;;;-0.83;66.88;99167.25;1806724;77;20094;-67
2022/03/07 07:16:40;;;;;;;;;;;;;;;-0.81;65.92;99160.55;1806805;79;20078;-68
2022/03/07 07:19:09;;;;;;;;;;;;;;;-0.80;66.19;99157.31;1811820;79;20084;-68
2022/03/07 07:21:37;;;;;;;;;;;;;;;-0.77;65.84;99157.63;1817596;78;20112;-68
2022/03/07 07:24:06;;;;;;;;;;;;;;;-0.76;65.77;99153.87;1817447;79;21247;-68
2022/03/07 07:26:34;;;;;;;;;;;;;;;-0.69;65.53;99148.28;1817498;79;20086;-68
2022/03/07 07:29:01;;;;;;;;;;;;;;;-0.61;64.76;99147.84;1816250;79;20141;-73
2022/03/07 07:31:29;;;;;;;;;;;;;;;-0.61;65.01;99145.14;1817495;79;20090;-70
2022/03/07 07:33:56;;;;;;;;;;;;;;;-0.61;64.72;99145.68;1817511;79;20086;-70
2022/03/07 07:36:25;;;;;;;;;;;;;;;-0.60;64.53;99138.69;1817430;78;20571;-71
2022/03/07 07:38:52;;;;;;;;;;;;;;;-0.51;64.85;99133.63;1817579;79;20154;-72
2022/03/07 07:41:19;;;;;;;;;;;;;;;-0.34;65.73;99135.70;1815987;79;20145;-74
2022/03/07 07:43:49;;;;;;;;;;;;;;;-0.08;64.13;99135.41;1791392;79;38197;-72
2022/03/07 07:46:16;;;;;;;;;;;;;;;0.13;62.72;99129.63;1817628;79;20094;-75
2022/03/07 07:48:44;;;;;;;;;;;;;;;0.25;62.85;99127.56;1817622;79;21132;-74
2022/03/07 07:51:11;;;;;;;;;;;;;;;0.39;61.89;99130.10;1817391;79;20121;-74
2022/03/07 07:53:38;;;;;;;;;;;;;;;0.50;62.18;99129.63;1817641;79;20146;-73
2022/03/07 07:56:04;;;;;;;;;;;;;;;0.60;61.38;99127.78;1817521;79;20370;-75
2022/03/07 07:58:31;;;;;;;;;;;;;;;0.71;61.27;99130.55;1817897;78;20122;-76
2022/03/07 08:00:58;;;;;;;;;;;;;;;0.93;61.50;99119.05;1813958;79;21515;-77
2022/03/07 08:03:24;;;;;;;;;;;;;;;1.17;59.44;99122.10;1797969;78;20108;-68
2022/03/07 08:05:54;;;;;;;;;;;;;;;1.33;59.25;99115.13;1817254;79;20094;-69
2022/03/07 08:08:23;;;;;;;;;;;;;;;1.50;59.27;99116.81;1816965;79;20101;-69
2022/03/07 08:10:55;;;;;;;;;;;;;;;1.60;58.43;99119.54;1816991;79;20433;-69
2022/03/07 08:13:23;;;;;;;;;;;;;;;1.67;59.02;99116.58;1817000;77;21973;-72
2022/03/07 08:15:50;;;;;;;;;;;;;;;1.70;57.56;99111.98;1816890;79;20260;-74
2022/03/07 08:18:20;;;;;;;;;;;;;;;1.63;57.13;99116.30;1816992;79;20098;-72
2022/03/07 08:20:47;;;;;;;;;;;;;;;1.51;57.28;99113.84;1802441;79;20430;-80
2022/03/07 08:23:13;;;;;;;;;;;;;;;1.40;58.06;99121.64;1772060;79;21036;-77
2022/03/07 08:25:41;;;;;;;;;;;;;;;1.35;58.24;99117.58;1772213;79;21151;-80
2022/03/07 08:28:09;;;;;;;;;;;;;;;1.33;58.31;99107.02;1784299;80;20144;-76
2022/03/07 08:30:38;;;;;;;;;;;;;;;1.41;58.51;99103.53;1783026;79;20112;-79
2022/03/07 08:33:05;;;;;;;;;;;;;;;1.50;58.56;99105.45;1784248;80;20096;-81
2022/03/07 08:35:32;;;;;;;;;;;;;;;1.51;58.02;99103.55;1784395;80;20120;-74
2022/03/07 08:37:59;;;;;;;;;;;;;;;1.42;57.99;99097.03;1784401;80;21138;-74
2022/03/07 08:40:26;;;;;;;;;;;;;;;1.39;57.86;99115.16;1784554;79;20080;-71
2022/03/07 08:42:53;;;;;;;;;;;;;;;1.39;58.59;99112.45;1784521;79;20141;-70
2022/03/07 08:45:22;;;;;;;;;;;;;;;1.48;58.89;99109.50;1799690;79;20132;-87
2022/03/07 08:47:50;;;;;;;;;;;;;;;1.68;59.01;99100.08;1809712;79;20106;-78
2022/03/07 08:50:18;;;;;;;;;;;;;;;1.84;57.31;99103.04;1809396;79;21805;-68
2022/03/07 08:52:46;;;;;;;;;;;;;;;1.84;58.12;99105.75;1809234;79;20106;-70
2022/03/07 08:55:13;;;;;;;;;;;;;;;1.84;57.83;99098.98;1809294;79;20118;-72
2022/03/07 08:57:40;;;;;;;;;;;;;;;1.85;57.56;99107.91;1809268;79;20134;-70
2022/03/07 09:00:09;;;;;;;;;;;;;;;1.81;57.39;99091.94;1790941;79;20188;-68
2022/03/07 09:02:36;;;;;;;;;;;;;;;1.78;58.22;99097.35;1784547;79;21814;-68
2022/03/07 09:05:04;;;;;;;;;;;;;;;1.87;58.27;99104.40;1784468;79;20155;-67
2022/03/07 09:07:30;;;;;;;;;;;;;;;1.84;55.61;99102.23;1784629;80;20466;-67
2022/03/07 09:10:00;;;;;;;;;;;;;;;1.72;56.10;99092.23;1784520;80;20115;-67
2022/03/07 09:12:29;;;;;;;;;;;;;;;1.63;55.97;99107.64;1784290;80;20085;-67
2022/03/07 09:14:57;;;;;;;;;;;;;;;1.65;56.54;99101.96;1784386;80;21233;-67
2022/03/07 09:17:24;;;;;;;;;;;;;;;1.66;56.35;99100.88;1784942;80;20080;-67
2022/03/07 09:19:52;;;;;;;;;;;;;;;1.69;56.47;99107.66;1784564;80;20148;-67
2022/03/07 09:22:20;;;;;;;;;;;;;;;1.69;56.00;99102.23;1752324;80;20650;-67
2022/03/07 09:24:47;;;;;;;;;;;;;;;1.65;56.84;99115.48;1752054;80;20115;-67
2022/03/07 09:27:15;;;;;;;;;;;;;;;1.59;55.65;99112.50;1752004;82;21718;-67
2022/03/07 09:29:42;;;;;;;;;;;;;;;1.44;55.62;99119.22;1751487;82;20451;-67
2022/03/07 09:32:09;;;;;;;;;;;;;;;1.32;56.36;99116.21;1751931;81;20094;-67
2022/03/07 09:34:36;;;;;;;;;;;;;;;1.26;58.07;99121.33;1752107;80;21017;-67
2022/03/07 09:37:04;;;;;;;;;;;;;;;1.26;57.39;99118.63;1752016;82;20118;-67
2022/03/07 09:39:33;;;;;;;;;;;;;;;1.31;57.43;99113.23;1751905;81;21140;-67
2022/03/07 09:42:00;;;;;;;;;;;;;;;1.37;56.11;99107.30;1751562;81;20425;-67
2022/03/07 09:44:28;;;;;;;;;;;;;;;1.32;56.83;99095.93;1751807;80;20127;-68
2022/03/07 09:46:57;;;;;;;;;;;;;;;1.41;57.31;99096.77;1751954;82;20111;-66
2022/03/07 09:49:24;;;;;;;;;;;;;;;1.57;57.90;99097.08;1751895;81;20083;-68
2022/03/07 09:51:53;;;;;;;;;;;;;;;1.77;56.52;99097.08;1752353;82;21129;-69
2022/03/07 09:54:21;;;;;;;;;;;;;;;1.88;55.93;99091.13;1751861;82;20161;-69
2022/03/07 09:56:48;;;;;;;;;;;;;;;1.85;55.92;99085.72;1751477;82;20473;-68
2022/03/07 09:59:17;;;;;;;;;;;;;;;1.86;54.12;99090.59;1762136;80;20111;-68
2022/03/07 10:01:44;;;;;;;;;;;;;;;1.79;54.39;99092.21;1772009;80;20144;-68
2022/03/07 10:04:13;;;;;;;;;;;;;;;1.71;55.25;99083.84;1754738;80;21016;-66
2022/03/07 10:06:49;;;;;;;;;;;;;;;1.63;55.65;99091.41;1753622;80;20145;-68
2022/03/07 10:09:25;;;;;;;;;;;;;;;1.55;54.93;99096.53;1770294;79;20080;-68
2022/03/07 10:11:54;;;;;;;;;;;;;;;1.45;54.80;99093.80;1759461;80;20145;-66
2022/03/07 10:14:45;;;;;;;;;;;;;;;1.38;54.54;99089.19;1784394;80;20191;-67
2022/03/07 10:17:20;;;;;;;;;;;;;;;1.40;55.46;99089.19;1781184;80;21270;-67
2022/03/07 10:19:48;;;;;;;;;;;;;;;1.61;55.81;99083.28;1783582;80;20439;-67
2022/03/07 10:22:22;;;;;;;;;;;;;;;1.91;55.55;99081.94;1784382;79;20132;-66
2022/03/07 10:25:04;;;;;;;;;;;;;;;2.19;53.41;99071.64;1783515;80;20161;-67
2022/03/07 10:27:33;;;;;;;;;;;;;;;2.32;54.07;99077.83;1782909;80;20116;-66
2022/03/07 10:30:00;;;;;;;;;;;;;;;2.38;53.26;99072.67;1782509;80;21138;-71
2022/03/07 10:32:28;;;;;;;;;;;;;;;2.28;54.05;99078.14;1782999;80;20265;-69
2022/03/07 10:34:55;;;;;;;;;;;;;;;2.13;53.32;99072.19;1782606;80;20124;-69
2022/03/07 10:37:35;;;;;;;;;;;;;;;2.00;53.84;99063.26;1779908;80;20154;-68
2022/03/07 10:40:05;;;;;;;;;;;;;;;1.88;53.35;99065.42;1775996;81;20204;-68
2022/03/07 10:42:35;;;;;;;;;;;;;;;1.67;53.02;99070.04;1775808;79;20148;-68
2022/03/07 10:45:06;;;;;;;;;;;;;;;1.48;54.07;99062.97;1775876;81;20176;-69
2022/03/07 10:47:33;;;;;;;;;;;;;;;1.37;54.63;99069.98;1775913;81;20172;-68
2022/03/07 10:50:02;;;;;;;;;;;;;;;1.24;54.65;99061.30;1775927;79;20120;-68
2022/03/07 10:52:38;;;;;;;;;;;;;;;1.17;54.48;99061.27;1775830;81;20191;-69
2022/03/07 10:55:07;;;;;;;;;;;;;;;1.14;55.24;99057.23;1775901;81;21129;-68
2022/03/07 10:57:38;;;;;;;;;;;;;;;1.18;55.36;99056.14;1776089;81;20164;-68
2022/03/07 11:00:10;;;;;;;;;;;;;;;1.21;55.48;99052.90;1777233;80;20423;-68
2022/03/07 11:02:43;;;;;;;;;;;;;;;1.22;54.41;99055.34;1784376;80;20132;-69
2022/03/07 11:05:13;;;;;;;;;;;;;;;1.13;54.65;99054.27;1784383;80;20084;-66
2022/03/07 11:07:43;;;;;;;;;;;;;;;1.01;55.43;99057.73;1784706;80;21105;-67
2022/03/07 11:10:10;;;;;;;;;;;;;;;0.99;55.87;99055.84;1784271;79;20127;-67
2022/03/07 11:12:37;;;;;;;;;;;;;;;1.00;56.15;99061.52;1784501;80;20399;-65
2022/03/07 11:15:08;;;;;;;;;;;;;;;1.02;56.96;99055.30;1781346;79;20162;-64
2022/03/07 11:17:38;;;;;;;;;;;;;;;1.01;55.79;99054.22;1759443;81;20213;-67
2022/03/07 11:20:07;;;;;;;;;;;;;;;0.96;57.82;99049.06;1774566;78;21791;-66
2022/03/07 11:22:34;;;;;;;;;;;;;;;0.99;57.39;99051.24;1790508;80;20978;-67
2022/03/07 11:25:02;;;;;;;;;;;;;;;0.98;56.88;99055.02;1790566;80;20135;-69
2022/03/07 11:27:29;;;;;;;;;;;;;;;0.97;56.97;99043.13;1790624;80;20171;-67
2022/03/07 11:29:57;;;;;;;;;;;;;;;0.94;56.04;99039.59;1790510;80;20176;-69
2022/03/07 11:32:24;;;;;;;;;;;;;;;0.89;56.31;99044.98;1790497;80;21135;-67
2022/03/07 11:35:00;;;;;;;;;;;;;;;0.81;57.71;99039.55;1790691;80;20445;-69
2022/03/07 11:37:31;;;;;;;;;;;;;;;0.79;56.29;99038.19;1790649;80;20136;-67
2022/03/07 11:39:58;;;;;;;;;;;;;;;0.73;56.35;99032.48;1790659;80;20187;-67
2022/03/07 11:42:37;;;;;;;;;;;;;;;0.68;56.21;99030.58;1790667;80;20137;-67
2022/03/07 11:45:09;;;;;;;;;;;;;;;0.67;55.93;99031.66;1790676;80;21255;-66
2022/03/07 11:47:39;;;;;;;;;;;;;;;0.62;56.56;99029.73;1790717;80;20151;-67
2022/03/07 11:50:07;;;;;;;;;;;;;;;0.62;56.81;99035.14;1790704;80;20080;-68
2022/03/07 11:52:34;;;;;;;;;;;;;;;0.64;56.95;99028.13;1790687;79;20638;-67
2022/03/07 11:55:03;;;;;;;;;;;;;;;0.63;56.58;99033.25;1790621;79;20414;-67
2022/03/07 11:57:38;;;;;;;;;;;;;;;0.58;56.90;99027.28;1790732;80;21260;-67
2022/03/07 12:00:27;;;;;;;;;;;;;;;0.57;57.18;99031.09;1790012;80;20450;-67
2022/03/07 12:02:56;;;;;;;;;;;;;;;0.58;57.27;99027.28;1784317;79;20092;-67
2022/03/07 12:05:26;;;;;;;;;;;;;;;0.56;58.91;99029.47;1784349;79;20131;-68
2022/03/07 12:07:56;;;;;;;;;;;;;;;0.51;58.11;99024.05;1784624;80;20080;-67
2022/03/07 12:10:23;;;;;;;;;;;;;;;0.45;58.52;99033.73;1782685;80;21773;-67
2022/03/07 12:12:51;;;;;;;;;;;;;;;0.43;59.13;99025.08;1784190;80;20124;-67
2022/03/07 12:15:19;;;;;;;;;;;;;;;0.45;59.16;99029.14;1784295;79;20108;-67
2022/03/07 12:17:51;;;;;;;;;;;;;;;0.53;60.59;99029.18;1784387;79;20404;-67
2022/03/07 12:20:18;;;;;;;;;;;;;;;0.65;59.31;99031.10;1778827;80;20145;-67
2022/03/07 12:22:45;;;;;;;;;;;;;;;0.72;58.43;99030.32;1751731;82;21097;-67
2022/03/07 12:25:12;;;;;;;;;;;;;;;0.81;58.80;99030.63;1751598;82;20118;-67
2022/03/07 12:27:41;;;;;;;;;;;;;;;0.83;57.09;99029.29;1726596;82;20082;-67
2022/03/07 12:30:09;;;;;;;;;;;;;;;0.86;56.09;99028.76;1751680;82;20139;-67
2022/03/07 12:32:40;;;;;;;;;;;;;;;0.81;54.67;99022.52;1752039;82;20175;-67
2022/03/07 12:35:07;;;;;;;;;;;;;;;0.71;55.67;99017.89;1751659;81;22084;-67
2022/03/07 12:37:33;;;;;;;;;;;;;;;0.71;55.71;99019.78;1751848;82;20130;-67
2022/03/07 12:40:03;;;;;;;;;;;;;;;0.69;55.13;99015.98;1751679;82;20135;-67
2022/03/07 12:42:31;;;;;;;;;;;;;;;0.65;54.34;99018.41;1751807;82;20449;-67
2022/03/07 12:45:04;;;;;;;;;;;;;;;0.66;54.68;99025.97;1779034;79;20178;-67
2022/03/07 12:47:28;;;;;;;;;;;;;;;0.66;53.69;99021.92;1807616;79;21176;-67
2022/03/07 12:49:55;;;;;;;;;;;;;;;0.62;53.57;99021.63;1809090;79;20425;-67
2022/03/07 12:52:24;;;;;;;;;;;;;;;0.59;53.71;99016.76;1809507;79;20114;-67
2022/03/07 12:54:50;;;;;;;;;;;;;;;0.55;55.10;99018.93;1809383;79;20142;-67